sensor_id;sensor_type;location;lat;lon;timestamp;temperature;humidity
65985;HTU21D;52748;51.112;5.880;2023-09-19T00:01:35;25.23;73.28
65985;HTU21D;52748;51.112;5.880;2023-09-19T00:04:01;25.22;73.35
65985;HTU21D;52748;51.112;5.880;2023-09-19T00:06:29;25.22;73.39
65985;HTU21D;52748;51.112;5.880;2023-09-19T00:08:57;25.23;73.19
65985;HTU21D;52748;51.112;5.880;2023-09-19T00:11:25;25.25;73.01
65985;HTU21D;52748;51.112;5.880;2023-09-19T00:13:52;25.27;72.64
65985;HTU21D;52748;51.112;5.880;2023-09-19T00:16:18;25.29;72.23
65985;HTU21D;52748;51.112;5.880;2023-09-19T00:18:45;25.30;71.97
65985;HTU21D;52748;51.112;5.880;2023-09-19T00:21:12;25.30;72.02
65985;HTU21D;52748;51.112;5.880;2023-09-19T00:23:38;25.29;71.99
65985;HTU21D;52748;51.112;5.880;2023-09-19T00:26:06;25.28;72.30
65985;HTU21D;52748;51.112;5.880;2023-09-19T00:28:32;25.28;72.36
65985;HTU21D;52748;51.112;5.880;2023-09-19T00:30:58;25.27;71.88
65985;HTU21D;52748;51.112;5.880;2023-09-19T00:33:28;25.25;71.57
65985;HTU21D;52748;51.112;5.880;2023-09-19T00:35:57;25.24;71.50
65985;HTU21D;52748;51.112;5.880;2023-09-19T00:38:23;25.27;70.93
65985;HTU21D;52748;51.112;5.880;2023-09-19T00:40:54;25.27;70.29
65985;HTU21D;52748;51.112;5.880;2023-09-19T00:43:21;25.27;70.66
65985;HTU21D;52748;51.112;5.880;2023-09-19T00:45:52;25.28;70.63
65985;HTU21D;52748;51.112;5.880;2023-09-19T00:48:20;25.28;70.45
65985;HTU21D;52748;51.112;5.880;2023-09-19T00:50:47;25.28;70.64
65985;HTU21D;52748;51.112;5.880;2023-09-19T00:53:18;25.27;70.66
65985;HTU21D;52748;51.112;5.880;2023-09-19T00:55:46;25.25;71.00
65985;HTU21D;52748;51.112;5.880;2023-09-19T00:58:13;25.23;71.34
65985;HTU21D;52748;51.112;5.880;2023-09-19T01:00:40;25.22;71.44
65985;HTU21D;52748;51.112;5.880;2023-09-19T01:03:06;25.20;71.47
65985;HTU21D;52748;51.112;5.880;2023-09-19T01:05:36;25.19;71.48
65985;HTU21D;52748;51.112;5.880;2023-09-19T01:08:01;25.19;71.61
65985;HTU21D;52748;51.112;5.880;2023-09-19T01:10:28;25.18;71.37
65985;HTU21D;52748;51.112;5.880;2023-09-19T01:13:13;25.18;71.18
65985;HTU21D;52748;51.112;5.880;2023-09-19T01:16:25;25.15;71.26
65985;HTU21D;52748;51.112;5.880;2023-09-19T01:28:14;25.15;71.01
65985;HTU21D;52748;51.112;5.880;2023-09-19T01:30:43;25.13;70.97
65985;HTU21D;52748;51.112;5.880;2023-09-19T01:33:10;25.12;71.10
65985;HTU21D;52748;51.112;5.880;2023-09-19T01:35:40;25.12;70.87
65985;HTU21D;52748;51.112;5.880;2023-09-19T01:38:06;25.13;70.56
65985;HTU21D;52748;51.112;5.880;2023-09-19T01:40:42;25.12;70.48
65985;HTU21D;52748;51.112;5.880;2023-09-19T01:43:21;25.14;70.38
65985;HTU21D;52748;51.112;5.880;2023-09-19T01:48:42;25.14;70.38
65985;HTU21D;52748;51.112;5.880;2023-09-19T01:52:00;25.13;70.49
65985;HTU21D;52748;51.112;5.880;2023-09-19T01:54:10;25.13;70.58
65985;HTU21D;52748;51.112;5.880;2023-09-19T01:56:50;25.10;70.53
65985;HTU21D;52748;51.112;5.880;2023-09-19T01:59:24;25.10;70.59
65985;HTU21D;52748;51.112;5.880;2023-09-19T02:01:55;25.09;70.52
65985;HTU21D;52748;51.112;5.880;2023-09-19T02:04:21;25.09;70.52
65985;HTU21D;52748;51.112;5.880;2023-09-19T02:06:47;25.07;70.47
65985;HTU21D;52748;51.112;5.880;2023-09-19T02:09:14;25.07;70.48
65985;HTU21D;52748;51.112;5.880;2023-09-19T02:11:40;25.07;70.52
65985;HTU21D;52748;51.112;5.880;2023-09-19T02:14:08;25.06;70.39
65985;HTU21D;52748;51.112;5.880;2023-09-19T02:16:35;25.04;70.42
65985;HTU21D;52748;51.112;5.880;2023-09-19T02:19:01;25.07;70.35
65985;HTU21D;52748;51.112;5.880;2023-09-19T02:21:30;25.05;70.24
65985;HTU21D;52748;51.112;5.880;2023-09-19T02:23:57;25.08;70.07
65985;HTU21D;52748;51.112;5.880;2023-09-19T02:26:24;25.07;69.97
65985;HTU21D;52748;51.112;5.880;2023-09-19T02:28:50;25.06;69.92
65985;HTU21D;52748;51.112;5.880;2023-09-19T02:31:16;25.06;69.74
65985;HTU21D;52748;51.112;5.880;2023-09-19T02:33:43;25.05;69.76
65985;HTU21D;52748;51.112;5.880;2023-09-19T02:36:09;25.05;69.74
65985;HTU21D;52748;51.112;5.880;2023-09-19T02:38:34;25.06;69.68
65985;HTU21D;52748;51.112;5.880;2023-09-19T02:41:00;25.06;69.50
65985;HTU21D;52748;51.112;5.880;2023-09-19T02:43:27;25.04;69.45
65985;HTU21D;52748;51.112;5.880;2023-09-19T02:45:53;25.03;69.52
65985;HTU21D;52748;51.112;5.880;2023-09-19T02:48:19;25.03;69.47
65985;HTU21D;52748;51.112;5.880;2023-09-19T02:50:52;25.03;69.41
65985;HTU21D;52748;51.112;5.880;2023-09-19T02:53:18;25.01;69.41
65985;HTU21D;52748;51.112;5.880;2023-09-19T02:55:44;25.02;69.34
65985;HTU21D;52748;51.112;5.880;2023-09-19T02:58:10;25.01;69.22
65985;HTU21D;52748;51.112;5.880;2023-09-19T03:00:37;25.02;69.19
65985;HTU21D;52748;51.112;5.880;2023-09-19T03:03:03;25.02;69.06
65985;HTU21D;52748;51.112;5.880;2023-09-19T03:05:32;25.04;68.99
65985;HTU21D;52748;51.112;5.880;2023-09-19T03:07:59;25.03;68.87
65985;HTU21D;52748;51.112;5.880;2023-09-19T03:10:28;25.02;68.81
65985;HTU21D;52748;51.112;5.880;2023-09-19T03:12:57;25.01;68.84
65985;HTU21D;52748;51.112;5.880;2023-09-19T03:15:24;25.00;68.91
65985;HTU21D;52748;51.112;5.880;2023-09-19T03:17:51;24.99;68.91
65985;HTU21D;52748;51.112;5.880;2023-09-19T03:20:22;25.00;68.89
65985;HTU21D;52748;51.112;5.880;2023-09-19T03:22:48;24.98;68.81
65985;HTU21D;52748;51.112;5.880;2023-09-19T03:25:15;24.98;68.75
65985;HTU21D;52748;51.112;5.880;2023-09-19T03:27:44;24.97;68.73
65985;HTU21D;52748;51.112;5.880;2023-09-19T03:30:11;24.98;68.76
65985;HTU21D;52748;51.112;5.880;2023-09-19T03:32:49;24.99;68.75
65985;HTU21D;52748;51.112;5.880;2023-09-19T03:35:17;24.97;68.62
65985;HTU21D;52748;51.112;5.880;2023-09-19T03:37:43;24.98;68.64
65985;HTU21D;52748;51.112;5.880;2023-09-19T03:40:10;24.98;68.65
65985;HTU21D;52748;51.112;5.880;2023-09-19T03:42:41;24.98;68.59
65985;HTU21D;52748;51.112;5.880;2023-09-19T03:45:10;24.98;68.54
65985;HTU21D;52748;51.112;5.880;2023-09-19T03:47:51;24.98;68.43
65985;HTU21D;52748;51.112;5.880;2023-09-19T03:50:20;24.97;68.34
65985;HTU21D;52748;51.112;5.880;2023-09-19T03:52:46;24.99;68.30
65985;HTU21D;52748;51.112;5.880;2023-09-19T03:55:11;24.99;68.32
65985;HTU21D;52748;51.112;5.880;2023-09-19T03:57:38;24.98;68.28
65985;HTU21D;52748;51.112;5.880;2023-09-19T04:00:04;24.98;68.31
65985;HTU21D;52748;51.112;5.880;2023-09-19T04:02:39;24.97;68.33
65985;HTU21D;52748;51.112;5.880;2023-09-19T04:05:07;24.94;68.54
65985;HTU21D;52748;51.112;5.880;2023-09-19T04:07:33;24.94;68.57
65985;HTU21D;52748;51.112;5.880;2023-09-19T04:10:00;24.95;68.57
65985;HTU21D;52748;51.112;5.880;2023-09-19T04:12:27;24.97;68.49
65985;HTU21D;52748;51.112;5.880;2023-09-19T04:14:53;24.97;68.48
65985;HTU21D;52748;51.112;5.880;2023-09-19T04:17:18;24.94;68.42
65985;HTU21D;52748;51.112;5.880;2023-09-19T04:19:44;24.93;68.36
65985;HTU21D;52748;51.112;5.880;2023-09-19T04:22:11;24.92;68.41
65985;HTU21D;52748;51.112;5.880;2023-09-19T04:24:38;24.92;68.39
65985;HTU21D;52748;51.112;5.880;2023-09-19T04:27:04;24.94;68.40
65985;HTU21D;52748;51.112;5.880;2023-09-19T04:29:30;24.93;68.23
65985;HTU21D;52748;51.112;5.880;2023-09-19T04:31:56;24.92;68.29
65985;HTU21D;52748;51.112;5.880;2023-09-19T04:34:25;24.92;68.39
65985;HTU21D;52748;51.112;5.880;2023-09-19T04:36:51;24.94;68.25
65985;HTU21D;52748;51.112;5.880;2023-09-19T04:39:18;24.92;68.23
65985;HTU21D;52748;51.112;5.880;2023-09-19T04:41:44;24.93;68.22
65985;HTU21D;52748;51.112;5.880;2023-09-19T04:44:13;24.93;68.03
65985;HTU21D;52748;51.112;5.880;2023-09-19T04:46:39;24.94;67.86
65985;HTU21D;52748;51.112;5.880;2023-09-19T04:49:05;24.97;67.73
65985;HTU21D;52748;51.112;5.880;2023-09-19T04:51:31;24.94;67.68
65985;HTU21D;52748;51.112;5.880;2023-09-19T04:54:00;24.94;67.69
65985;HTU21D;52748;51.112;5.880;2023-09-19T04:56:26;24.93;67.72
65985;HTU21D;52748;51.112;5.880;2023-09-19T04:58:54;24.92;67.75
65985;HTU21D;52748;51.112;5.880;2023-09-19T05:01:19;24.93;67.52
65985;HTU21D;52748;51.112;5.880;2023-09-19T05:03:49;24.93;67.46
65985;HTU21D;52748;51.112;5.880;2023-09-19T05:06:21;24.91;67.52
65985;HTU21D;52748;51.112;5.880;2023-09-19T05:08:50;24.90;63.90
65985;HTU21D;52748;51.112;5.880;2023-09-19T05:11:20;24.82;57.65
65985;HTU21D;52748;51.112;5.880;2023-09-19T05:13:47;24.66;55.00
65985;HTU21D;52748;51.112;5.880;2023-09-19T05:16:16;24.53;54.30
65985;HTU21D;52748;51.112;5.880;2023-09-19T05:18:42;24.39;53.62
65985;HTU21D;52748;51.112;5.880;2023-09-19T05:21:07;24.25;53.59
65985;HTU21D;52748;51.112;5.880;2023-09-19T05:23:34;24.15;54.31
65985;HTU21D;52748;51.112;5.880;2023-09-19T05:25:59;24.09;53.68
65985;HTU21D;52748;51.112;5.880;2023-09-19T05:28:26;23.96;53.91
65985;HTU21D;52748;51.112;5.880;2023-09-19T05:30:53;23.87;54.33
65985;HTU21D;52748;51.112;5.880;2023-09-19T05:33:19;23.77;54.65
65985;HTU21D;52748;51.112;5.880;2023-09-19T05:35:45;23.70;54.78
65985;HTU21D;52748;51.112;5.880;2023-09-19T05:38:13;23.64;54.81
65985;HTU21D;52748;51.112;5.880;2023-09-19T05:40:40;23.57;54.95
65985;HTU21D;52748;51.112;5.880;2023-09-19T05:43:08;23.50;55.08
65985;HTU21D;52748;51.112;5.880;2023-09-19T05:45:35;23.40;55.84
65985;HTU21D;52748;51.112;5.880;2023-09-19T05:48:12;23.34;56.85
65985;HTU21D;52748;51.112;5.880;2023-09-19T05:50:42;23.27;56.88
65985;HTU21D;52748;51.112;5.880;2023-09-19T05:53:09;23.23;56.95
65985;HTU21D;52748;51.112;5.880;2023-09-19T05:55:38;23.18;56.93
65985;HTU21D;52748;51.112;5.880;2023-09-19T05:58:04;23.13;56.93
65985;HTU21D;52748;51.112;5.880;2023-09-19T06:00:30;23.10;57.22
65985;HTU21D;52748;51.112;5.880;2023-09-19T06:02:58;23.10;57.24
65985;HTU21D;52748;51.112;5.880;2023-09-19T06:05:26;23.10;57.09
65985;HTU21D;52748;51.112;5.880;2023-09-19T06:07:57;23.06;57.22
65985;HTU21D;52748;51.112;5.880;2023-09-19T06:10:26;23.00;57.44
65985;HTU21D;52748;51.112;5.880;2023-09-19T06:12:54;22.98;57.46
65985;HTU21D;52748;51.112;5.880;2023-09-19T06:15:21;22.94;58.07
65985;HTU21D;52748;51.112;5.880;2023-09-19T06:17:52;22.93;58.13
65985;HTU21D;52748;51.112;5.880;2023-09-19T06:20:22;22.91;57.78
65985;HTU21D;52748;51.112;5.880;2023-09-19T06:22:49;22.84;57.92
65985;HTU21D;52748;51.112;5.880;2023-09-19T06:25:16;22.81;58.13
65985;HTU21D;52748;51.112;5.880;2023-09-19T06:27:46;22.80;58.35
65985;HTU21D;52748;51.112;5.880;2023-09-19T06:30:12;22.81;58.22
65985;HTU21D;52748;51.112;5.880;2023-09-19T06:32:42;22.82;58.17
65985;HTU21D;52748;51.112;5.880;2023-09-19T06:35:10;22.78;58.33
65985;HTU21D;52748;51.112;5.880;2023-09-19T06:37:37;22.72;58.66
65985;HTU21D;52748;51.112;5.880;2023-09-19T06:42:35;22.70;59.03
65985;HTU21D;52748;51.112;5.880;2023-09-19T06:45:04;22.76;59.02
65985;HTU21D;52748;51.112;5.880;2023-09-19T06:47:31;22.76;58.69
65985;HTU21D;52748;51.112;5.880;2023-09-19T06:49:57;22.76;58.89
65985;HTU21D;52748;51.112;5.880;2023-09-19T06:52:23;22.77;58.83
65985;HTU21D;52748;51.112;5.880;2023-09-19T06:54:48;22.76;58.71
65985;HTU21D;52748;51.112;5.880;2023-09-19T06:57:16;22.80;58.87
65985;HTU21D;52748;51.112;5.880;2023-09-19T06:59:42;22.85;58.81
65985;HTU21D;52748;51.112;5.880;2023-09-19T07:02:07;22.88;58.55
65985;HTU21D;52748;51.112;5.880;2023-09-19T07:04:34;22.90;58.43
65985;HTU21D;52748;51.112;5.880;2023-09-19T07:07:00;22.91;58.51
65985;HTU21D;52748;51.112;5.880;2023-09-19T07:09:25;22.94;58.43
65985;HTU21D;52748;51.112;5.880;2023-09-19T07:11:54;22.93;58.37
65985;HTU21D;52748;51.112;5.880;2023-09-19T07:14:19;22.97;58.41
65985;HTU21D;52748;51.112;5.880;2023-09-19T07:16:45;22.97;58.28
65985;HTU21D;52748;51.112;5.880;2023-09-19T07:19:13;22.96;58.29
65985;HTU21D;52748;51.112;5.880;2023-09-19T07:21:40;22.96;58.25
65985;HTU21D;52748;51.112;5.880;2023-09-19T07:24:10;23.00;58.32
65985;HTU21D;52748;51.112;5.880;2023-09-19T07:26:36;23.05;58.41
65985;HTU21D;52748;51.112;5.880;2023-09-19T07:29:02;23.07;58.09
65985;HTU21D;52748;51.112;5.880;2023-09-19T07:31:29;23.08;57.93
65985;HTU21D;52748;51.112;5.880;2023-09-19T07:33:56;23.10;58.01
65985;HTU21D;52748;51.112;5.880;2023-09-19T07:36:22;23.09;57.97
65985;HTU21D;52748;51.112;5.880;2023-09-19T07:38:53;23.11;57.96
65985;HTU21D;52748;51.112;5.880;2023-09-19T07:41:24;23.11;57.92
65985;HTU21D;52748;51.112;5.880;2023-09-19T07:43:49;23.13;57.92
65985;HTU21D;52748;51.112;5.880;2023-09-19T07:46:15;23.12;57.96
65985;HTU21D;52748;51.112;5.880;2023-09-19T07:48:42;23.12;58.01
65985;HTU21D;52748;51.112;5.880;2023-09-19T07:51:13;23.13;58.03
65985;HTU21D;52748;51.112;5.880;2023-09-19T07:53:41;23.13;58.09
65985;HTU21D;52748;51.112;5.880;2023-09-19T07:56:09;23.18;57.96
65985;HTU21D;52748;51.112;5.880;2023-09-19T07:58:38;23.20;57.87
65985;HTU21D;52748;51.112;5.880;2023-09-19T08:01:08;23.21;57.80
65985;HTU21D;52748;51.112;5.880;2023-09-19T08:03:38;23.21;57.80
65985;HTU21D;52748;51.112;5.880;2023-09-19T08:06:07;23.21;57.75
65985;HTU21D;52748;51.112;5.880;2023-09-19T08:08:33;23.23;57.77
65985;HTU21D;52748;51.112;5.880;2023-09-19T08:11:08;23.24;57.73
65985;HTU21D;52748;51.112;5.880;2023-09-19T08:13:41;23.25;57.67
65985;HTU21D;52748;51.112;5.880;2023-09-19T08:16:10;23.25;57.44
65985;HTU21D;52748;51.112;5.880;2023-09-19T08:18:37;23.27;57.45
65985;HTU21D;52748;51.112;5.880;2023-09-19T08:21:05;23.29;57.26
65985;HTU21D;52748;51.112;5.880;2023-09-19T08:23:40;23.29;57.40
65985;HTU21D;52748;51.112;5.880;2023-09-19T08:26:06;23.30;57.69
65985;HTU21D;52748;51.112;5.880;2023-09-19T08:28:34;23.31;57.61
65985;HTU21D;52748;51.112;5.880;2023-09-19T08:31:04;23.34;57.51
65985;HTU21D;52748;51.112;5.880;2023-09-19T08:33:34;23.37;57.34
65985;HTU21D;52748;51.112;5.880;2023-09-19T08:36:05;23.35;57.37
65985;HTU21D;52748;51.112;5.880;2023-09-19T08:38:33;23.35;57.31
65985;HTU21D;52748;51.112;5.880;2023-09-19T08:40:59;23.32;57.52
65985;HTU21D;52748;51.112;5.880;2023-09-19T08:43:26;23.31;57.68
65985;HTU21D;52748;51.112;5.880;2023-09-19T08:46:03;23.37;57.70
65985;HTU21D;52748;51.112;5.880;2023-09-19T08:48:34;23.42;57.23
65985;HTU21D;52748;51.112;5.880;2023-09-19T08:51:03;23.42;56.90
65985;HTU21D;52748;51.112;5.880;2023-09-19T08:56:10;23.43;57.38
65985;HTU21D;52748;51.112;5.880;2023-09-19T08:58:57;23.43;57.16
65985;HTU21D;52748;51.112;5.880;2023-09-19T09:01:28;23.41;57.23
65985;HTU21D;52748;51.112;5.880;2023-09-19T09:03:56;23.40;57.23
65985;HTU21D;52748;51.112;5.880;2023-09-19T09:06:24;23.40;57.18
65985;HTU21D;52748;51.112;5.880;2023-09-19T09:08:51;23.39;57.35
65985;HTU21D;52748;51.112;5.880;2023-09-19T09:11:18;23.40;56.94
65985;HTU21D;52748;51.112;5.880;2023-09-19T09:13:48;23.41;56.81
65985;HTU21D;52748;51.112;5.880;2023-09-19T09:16:14;23.41;56.61
65985;HTU21D;52748;51.112;5.880;2023-09-19T09:18:47;23.41;56.31
65985;HTU21D;52748;51.112;5.880;2023-09-19T09:21:18;23.39;56.51
65985;HTU21D;52748;51.112;5.880;2023-09-19T09:23:44;23.45;56.10
65985;HTU21D;52748;51.112;5.880;2023-09-19T09:26:12;23.41;56.10
65985;HTU21D;52748;51.112;5.880;2023-09-19T09:28:45;23.43;56.16
65985;HTU21D;52748;51.112;5.880;2023-09-19T09:31:25;23.41;56.19
65985;HTU21D;52748;51.112;5.880;2023-09-19T09:33:54;23.42;56.28
65985;HTU21D;52748;51.112;5.880;2023-09-19T09:36:40;23.44;55.84
65985;HTU21D;52748;51.112;5.880;2023-09-19T09:39:07;23.45;55.74
65985;HTU21D;52748;51.112;5.880;2023-09-19T09:41:50;23.46;55.82
65985;HTU21D;52748;51.112;5.880;2023-09-19T09:44:17;23.49;55.89
65985;HTU21D;52748;51.112;5.880;2023-09-19T09:46:46;23.47;56.00
65985;HTU21D;52748;51.112;5.880;2023-09-19T09:49:23;23.49;55.74
65985;HTU21D;52748;51.112;5.880;2023-09-19T09:52:01;23.47;55.51
65985;HTU21D;52748;51.112;5.880;2023-09-19T09:54:35;23.49;55.29
65985;HTU21D;52748;51.112;5.880;2023-09-19T09:57:11;23.49;54.93
65985;HTU21D;52748;51.112;5.880;2023-09-19T09:59:45;23.47;54.84
65985;HTU21D;52748;51.112;5.880;2023-09-19T10:02:40;23.47;54.59
65985;HTU21D;52748;51.112;5.880;2023-09-19T10:05:14;23.47;54.45
65985;HTU21D;52748;51.112;5.880;2023-09-19T10:08:11;23.47;54.49
65985;HTU21D;52748;51.112;5.880;2023-09-19T10:10:40;23.49;54.32
65985;HTU21D;52748;51.112;5.880;2023-09-19T10:13:14;23.49;54.50
65985;HTU21D;52748;51.112;5.880;2023-09-19T10:15:51;23.47;54.56
65985;HTU21D;52748;51.112;5.880;2023-09-19T10:18:23;23.49;53.97
65985;HTU21D;52748;51.112;5.880;2023-09-19T10:20:49;23.46;53.59
65985;HTU21D;52748;51.112;5.880;2023-09-19T10:23:20;23.51;53.81
65985;HTU21D;52748;51.112;5.880;2023-09-19T10:25:50;23.51;53.92
65985;HTU21D;52748;51.112;5.880;2023-09-19T10:28:17;23.55;53.60
65985;HTU21D;52748;51.112;5.880;2023-09-19T10:30:49;23.54;53.30
65985;HTU21D;52748;51.112;5.880;2023-09-19T10:33:22;23.54;53.54
65985;HTU21D;52748;51.112;5.880;2023-09-19T10:35:52;23.54;53.66
65985;HTU21D;52748;51.112;5.880;2023-09-19T10:38:23;23.57;53.64
65985;HTU21D;52748;51.112;5.880;2023-09-19T10:40:54;23.58;53.49
65985;HTU21D;52748;51.112;5.880;2023-09-19T10:43:22;23.56;53.30
65985;HTU21D;52748;51.112;5.880;2023-09-19T10:45:51;23.58;53.43
65985;HTU21D;52748;51.112;5.880;2023-09-19T10:48:22;23.59;53.18
65985;HTU21D;52748;51.112;5.880;2023-09-19T10:56:24;23.61;53.46
65985;HTU21D;52748;51.112;5.880;2023-09-19T10:59:10;23.62;53.48
65985;HTU21D;52748;51.112;5.880;2023-09-19T11:02:26;23.65;53.20
65985;HTU21D;52748;51.112;5.880;2023-09-19T11:04:34;23.67;52.67
65985;HTU21D;52748;51.112;5.880;2023-09-19T11:07:08;23.68;52.62
65985;HTU21D;52748;51.112;5.880;2023-09-19T11:09:55;23.69;52.50
65985;HTU21D;52748;51.112;5.880;2023-09-19T11:14:52;23.68;52.88
65985;HTU21D;52748;51.112;5.880;2023-09-19T11:30:44;23.77;52.18
65985;HTU21D;52748;51.112;5.880;2023-09-19T11:33:29;23.76;52.46
65985;HTU21D;52748;51.112;5.880;2023-09-19T11:36:09;23.77;52.84
65985;HTU21D;52748;51.112;5.880;2023-09-19T11:46:52;23.85;52.30
65985;HTU21D;52748;51.112;5.880;2023-09-19T11:49:25;23.88;52.19
65985;HTU21D;52748;51.112;5.880;2023-09-19T11:51:52;23.88;52.14
65985;HTU21D;52748;51.112;5.880;2023-09-19T11:54:18;23.90;51.95
65985;HTU21D;52748;51.112;5.880;2023-09-19T11:56:54;23.91;51.82
65985;HTU21D;52748;51.112;5.880;2023-09-19T11:59:23;23.90;51.81
65985;HTU21D;52748;51.112;5.880;2023-09-19T12:02:04;23.91;51.97
65985;HTU21D;52748;51.112;5.880;2023-09-19T12:04:40;23.92;52.27
65985;HTU21D;52748;51.112;5.880;2023-09-19T12:07:10;23.96;52.11
65985;HTU21D;52748;51.112;5.880;2023-09-19T12:10:04;23.96;52.15
65985;HTU21D;52748;51.112;5.880;2023-09-19T12:12:31;23.96;52.00
65985;HTU21D;52748;51.112;5.880;2023-09-19T12:14:59;23.97;52.14
65985;HTU21D;52748;51.112;5.880;2023-09-19T12:17:41;23.97;51.95
65985;HTU21D;52748;51.112;5.880;2023-09-19T12:20:09;24.00;51.37
65985;HTU21D;52748;51.112;5.880;2023-09-19T12:22:45;24.00;51.16
65985;HTU21D;52748;51.112;5.880;2023-09-19T12:25:12;24.02;51.35
65985;HTU21D;52748;51.112;5.880;2023-09-19T12:27:43;24.03;51.52
65985;HTU21D;52748;51.112;5.880;2023-09-19T12:30:10;24.04;51.50
65985;HTU21D;52748;51.112;5.880;2023-09-19T12:32:40;24.06;51.66
65985;HTU21D;52748;51.112;5.880;2023-09-19T12:35:08;24.08;51.56
65985;HTU21D;52748;51.112;5.880;2023-09-19T12:37:37;24.06;51.54
65985;HTU21D;52748;51.112;5.880;2023-09-19T12:40:09;24.06;51.52
65985;HTU21D;52748;51.112;5.880;2023-09-19T12:42:44;24.09;51.76
65985;HTU21D;52748;51.112;5.880;2023-09-19T12:45:11;24.10;51.78
65985;HTU21D;52748;51.112;5.880;2023-09-19T12:53:27;24.13;51.77
65985;HTU21D;52748;51.112;5.880;2023-09-19T12:55:59;24.13;51.79
65985;HTU21D;52748;51.112;5.880;2023-09-19T12:58:25;24.15;51.97
65985;HTU21D;52748;51.112;5.880;2023-09-19T13:00:52;24.16;52.01
65985;HTU21D;52748;51.112;5.880;2023-09-19T13:03:28;24.15;51.95
65985;HTU21D;52748;51.112;5.880;2023-09-19T13:06:02;24.14;52.13
65985;HTU21D;52748;51.112;5.880;2023-09-19T13:08:35;24.15;52.19
65985;HTU21D;52748;51.112;5.880;2023-09-19T13:11:15;24.15;51.98
65985;HTU21D;52748;51.112;5.880;2023-09-19T13:13:45;24.15;51.81
65985;HTU21D;52748;51.112;5.880;2023-09-19T13:16:16;24.14;51.71
65985;HTU21D;52748;51.112;5.880;2023-09-19T13:18:55;24.13;51.87
65985;HTU21D;52748;51.112;5.880;2023-09-19T13:21:33;24.12;51.95
65985;HTU21D;52748;51.112;5.880;2023-09-19T13:24:24;24.13;51.85
65985;HTU21D;52748;51.112;5.880;2023-09-19T13:26:55;24.12;51.88
65985;HTU21D;52748;51.112;5.880;2023-09-19T13:29:22;24.13;51.88
65985;HTU21D;52748;51.112;5.880;2023-09-19T13:31:52;24.12;51.88
65985;HTU21D;52748;51.112;5.880;2023-09-19T13:34:21;24.10;52.24
65985;HTU21D;52748;51.112;5.880;2023-09-19T13:36:47;24.10;52.45
65985;HTU21D;52748;51.112;5.880;2023-09-19T13:39:16;24.11;52.71
65985;HTU21D;52748;51.112;5.880;2023-09-19T13:41:47;24.13;52.41
65985;HTU21D;52748;51.112;5.880;2023-09-19T13:44:14;24.13;52.52
65985;HTU21D;52748;51.112;5.880;2023-09-19T13:46:39;24.14;52.43
65985;HTU21D;52748;51.112;5.880;2023-09-19T13:49:06;24.14;52.39
65985;HTU21D;52748;51.112;5.880;2023-09-19T13:51:32;24.13;52.36
65985;HTU21D;52748;51.112;5.880;2023-09-19T13:53:58;24.16;52.41
65985;HTU21D;52748;51.112;5.880;2023-09-19T13:56:25;24.15;52.52
65985;HTU21D;52748;51.112;5.880;2023-09-19T13:58:54;24.15;52.63
65985;HTU21D;52748;51.112;5.880;2023-09-19T14:01:20;24.19;52.38
65985;HTU21D;52748;51.112;5.880;2023-09-19T14:03:46;24.17;52.14
65985;HTU21D;52748;51.112;5.880;2023-09-19T14:06:17;24.17;52.16
65985;HTU21D;52748;51.112;5.880;2023-09-19T14:08:46;24.16;52.33
65985;HTU21D;52748;51.112;5.880;2023-09-19T14:11:15;24.19;52.14
65985;HTU21D;52748;51.112;5.880;2023-09-19T14:13:41;24.19;52.05
65985;HTU21D;52748;51.112;5.880;2023-09-19T14:16:12;24.18;52.12
65985;HTU21D;52748;51.112;5.880;2023-09-19T14:18:38;24.19;52.11
65985;HTU21D;52748;51.112;5.880;2023-09-19T14:21:06;24.18;51.99
65985;HTU21D;52748;51.112;5.880;2023-09-19T14:23:39;24.18;52.17
65985;HTU21D;52748;51.112;5.880;2023-09-19T14:26:07;24.18;52.25
65985;HTU21D;52748;51.112;5.880;2023-09-19T14:28:33;24.17;52.17
65985;HTU21D;52748;51.112;5.880;2023-09-19T14:31:06;24.15;52.07
65985;HTU21D;52748;51.112;5.880;2023-09-19T14:33:32;24.14;52.30
65985;HTU21D;52748;51.112;5.880;2023-09-19T14:35:58;24.12;52.43
65985;HTU21D;52748;51.112;5.880;2023-09-19T14:38:24;24.11;52.40
65985;HTU21D;52748;51.112;5.880;2023-09-19T14:41:02;24.12;52.39
65985;HTU21D;52748;51.112;5.880;2023-09-19T14:43:28;24.14;52.24
65985;HTU21D;52748;51.112;5.880;2023-09-19T14:46:07;24.14;52.30
65985;HTU21D;52748;51.112;5.880;2023-09-19T14:48:34;24.14;52.43
65985;HTU21D;52748;51.112;5.880;2023-09-19T14:51:04;24.15;52.32
65985;HTU21D;52748;51.112;5.880;2023-09-19T14:53:33;24.12;52.34
65985;HTU21D;52748;51.112;5.880;2023-09-19T14:56:03;24.12;52.28
65985;HTU21D;52748;51.112;5.880;2023-09-19T14:58:30;24.11;52.36
65985;HTU21D;52748;51.112;5.880;2023-09-19T15:01:08;24.08;52.30
65985;HTU21D;52748;51.112;5.880;2023-09-19T15:03:36;24.05;52.40
65985;HTU21D;52748;51.112;5.880;2023-09-19T15:06:04;24.03;52.46
65985;HTU21D;52748;51.112;5.880;2023-09-19T15:08:34;24.02;52.53
65985;HTU21D;52748;51.112;5.880;2023-09-19T15:11:04;24.02;52.87
65985;HTU21D;52748;51.112;5.880;2023-09-19T15:13:31;24.01;53.06
65985;HTU21D;52748;51.112;5.880;2023-09-19T15:16:01;23.99;54.55
65985;HTU21D;52748;51.112;5.880;2023-09-19T15:18:28;24.01;55.10
65985;HTU21D;52748;51.112;5.880;2023-09-19T15:20:55;24.01;54.77
65985;HTU21D;52748;51.112;5.880;2023-09-19T15:23:21;24.10;54.53
65985;HTU21D;52748;51.112;5.880;2023-09-19T15:25:50;24.10;53.92
65985;HTU21D;52748;51.112;5.880;2023-09-19T15:28:16;24.10;53.95
65985;HTU21D;52748;51.112;5.880;2023-09-19T15:30:42;24.09;54.01
65985;HTU21D;52748;51.112;5.880;2023-09-19T15:33:08;24.08;54.01
65985;HTU21D;52748;51.112;5.880;2023-09-19T15:35:34;24.06;54.30
65985;HTU21D;52748;51.112;5.880;2023-09-19T15:38:03;24.02;54.19
65985;HTU21D;52748;51.112;5.880;2023-09-19T15:40:29;24.02;54.16
65985;HTU21D;52748;51.112;5.880;2023-09-19T15:42:55;24.01;53.94
65985;HTU21D;52748;51.112;5.880;2023-09-19T15:45:24;24.02;53.71
65985;HTU21D;52748;51.112;5.880;2023-09-19T15:47:51;24.01;53.49
65985;HTU21D;52748;51.112;5.880;2023-09-19T15:50:17;23.98;53.49
65985;HTU21D;52748;51.112;5.880;2023-09-19T15:52:43;23.98;53.57
65985;HTU21D;52748;51.112;5.880;2023-09-19T15:55:09;23.95;53.65
65985;HTU21D;52748;51.112;5.880;2023-09-19T15:57:38;23.94;54.91
65985;HTU21D;52748;51.112;5.880;2023-09-19T16:00:06;23.96;55.10
65985;HTU21D;52748;51.112;5.880;2023-09-19T16:02:38;24.00;54.87
65985;HTU21D;52748;51.112;5.880;2023-09-19T16:05:04;24.04;54.57
65985;HTU21D;52748;51.112;5.880;2023-09-19T16:07:33;24.05;54.13
65985;HTU21D;52748;51.112;5.880;2023-09-19T16:10:00;24.10;53.99
65985;HTU21D;52748;51.112;5.880;2023-09-19T16:12:26;24.10;53.71
65985;HTU21D;52748;51.112;5.880;2023-09-19T16:14:52;24.10;53.73
65985;HTU21D;52748;51.112;5.880;2023-09-19T16:17:18;24.13;53.63
65985;HTU21D;52748;51.112;5.880;2023-09-19T16:19:43;24.12;53.33
65985;HTU21D;52748;51.112;5.880;2023-09-19T16:22:10;24.12;53.48